香港国際空港 の過去48時間の天気

香港国際空港 (Hong Kong Inter-National Airport)

現在時刻: 7/2 20:33 HKT (7/2 12:33 UTC) 以下の時間は現地時間です。

過去48時間のMETAR気象情報
時間 風向 風速(m/s) 視程 気温(℃) 湿度(%) 気圧(hPa) 天気現象
2 20:00 南南東 4 10km以上 30 79 1006
2 19:30 南南東 4 10km以上 29 84 1005
2 19:00 南南東 4 10km以上 30 79 1005
2 18:30 南東 4 10km以上 30 75 1005
2 18:00 南南東 3 10km以上 31 70 1004
2 17:30 南南西 3 10km以上 31 70 1004
2 17:00 3 10km以上 31 70 1004
2 16:30 南南西 3 10km以上 30 75 1004 周辺でしゅう雨
2 16:00 3 10km以上 31 70 1004 周辺でしゅう雨
2 15:30 南南西 4 10km以上 31 70 1004
2 15:00 5 10km以上 30 75 1005
2 14:30 南南西 4 10km以上 29 79 1005 周辺でしゅう雨
2 14:11 不定 2 8000m 28 89 1005 弱いしゅう雨
2 14:00 8 1900m 27 89 1005 しゅう雨
2 13:53 6 2900m 29 84 1005 強いしゅう雨
2 13:30 4 10km以上 32 67 1005 周辺でしゅう雨
2 13:00 南南東 4 10km以上 32 67 1005
2 12:30 南南西 4 10km以上 32 63 1005
2 12:00 3 10km以上 31 70 1005
2 11:30 南南西 5 8000m 29 84 1006 弱いしゅう雨
2 11:16 南西 9 10km以上 30 75 1006
2 11:00 3 10km以上 30 75 1005
2 10:30 南東 2 10km以上 30 75 1005
2 10:00 南南東 4 10km以上 30 79 1005 弱いしゅう雨
2 09:30 南南西 4 10km以上 31 75 1005
2 09:10 南南西 6 10km以上 30 79 1005
2 09:00 南南東 5 10km以上 30 79 1005
2 08:30 南南東 2 10km以上 30 75 1005
2 08:00 南南東 4 10km以上 29 84 1005
2 07:30 南南東 4 10km以上 29 84 1005
2 07:00 南南東 4 10km以上 28 89 1004 弱いしゅう雨
2 06:35 南東 4 10km以上 29 84 1004 周辺でしゅう雨
2 06:30 南東 4 10km以上 29 84 1004 周辺でしゅう雨
2 06:00 南南東 4 10km以上 28 89 1003 周辺でしゅう雨
2 05:34 南東 3 10km以上 28 89 1003 しゅう雨
2 05:15 南東 3 10km以上 28 89 1003 弱いしゅう雨
2 05:00 南南東 4 10km以上 28 89 1003 しゅう雨
2 04:39 南南東 5 4500m 28 84 1003 しゅう雨
2 04:36 南南東 4 10km以上 29 79 1003 強いしゅう雨
2 04:30 南南東 4 10km以上 29 79 1003
2 04:00 南東 4 10km以上 29 79 1003
2 03:30 南東 4 10km以上 29 79 1003
2 03:00 東南東 4 8000m 29 84 1003 弱いしゅう雨
2 02:30 南南東 3 10km以上 30 75 1003 弱いしゅう雨
2 02:00 南東 3 10km以上 30 75 1004
2 01:30 不定 1 10km以上 29 84 1004 周辺でしゅう雨
2 01:00 南東 4 10km以上 29 84 1004
2 00:30 5 10km以上 30 75 1004
2 00:00 5 10km以上 30 79 1004
1 23:30 5 10km以上 30 79 1005
1 23:00 5 10km以上 30 75 1005
1 22:30 東南東 5 10km以上 30 75 1005
1 22:00 東南東 5 10km以上 30 75 1005
1 21:30 東南東 5 10km以上 30 79 1005 弱いしゅう雨
1 21:00 東南東 5 10km以上 30 75 1004
1 20:30 東南東 5 10km以上 30 79 1004
1 20:00 東南東 6 10km以上 30 75 1003
1 19:30 東南東 6 10km以上 31 70 1003
1 19:00 東南東 5 10km以上 31 70 1003
1 18:30 東南東 4 10km以上 31 70 1003
1 18:00 東南東 4 10km以上 31 70 1002
1 17:30 南南東 4 10km以上 31 66 1003
1 17:00 南南東 5 10km以上 31 66 1002
1 16:30 4 10km以上 31 66 1002
1 16:00 4 10km以上 32 63 1003
1 15:30 南東 5 10km以上 31 70 1003
1 15:00 4 10km以上 32 67 1003
1 14:30 西 4 10km以上 32 67 1003 弱いしゅう雨
1 14:00 西 5 10km以上 33 63 1003
1 13:40 西南西 5 10km以上 34 56 1003
1 13:00 北東 4 10km以上 31 70 1003
1 12:30 北北東 3 10km以上 31 70 1004
1 12:00 2 10km以上 30 79 1004
1 11:30 不定 2 10km以上 30 75 1005
1 11:00 4 4500m 29 84 1005 弱いしゅう雨
1 10:51 北北東 2 4300m 29 89 1005
1 10:48 2 10km以上 30 79 1005
1 10:30 北西 2 10km以上 30 75 1004
1 10:00 2 10km以上 30 75 1004
1 09:30 西北西 2 10km以上 30 75 1004
1 09:00 西 3 10km以上 30 75 1005
1 08:30 北東 3 10km以上 29 79 1004 弱いしゅう雨
1 08:00 東北東 3 10km以上 29 79 1004 周辺でしゅう雨
1 07:30 東北東 2 10km以上 30 75 1004 周辺でしゅう雨
1 07:00 東北東 3 10km以上 30 79 1004 周辺でしゅう雨
1 06:30 2 10km以上 29 79 1004 周辺でしゅう雨
1 06:00 2 10km以上 29 79 1004
1 05:30 南東 3 10km以上 29 79 1003
1 05:00 不定 2 10km以上 29 79 1003
1 04:30 東南東 3 10km以上 29 79 1003
1 04:00 南東 3 10km以上 29 79 1003
VHHH 021200Z 15008KT 9999 FEW018 30/26 Q1006 NOSIG
VHHH 021130Z 15007KT 120V180 9999 FEW014 29/26 Q1005 NOSIG
VHHH 021100Z 15008KT 120V190 9999 FEW014 SCT025 30/26 Q1005 NOSIG
VHHH 021030Z 14008KT 080V170 9999 FEW012 SCT028 30/25 Q1005 NOSIG
VHHH 021000Z 15006KT 100V210 9999 FEW018 SCT028 31/25 Q1004 NOSIG
VHHH 020930Z 20006KT 160V260 9999 FEW020 SCT028 31/25 Q1004 NOSIG
VHHH 020900Z 19006KT 120V230 9999 FEW016 SCT025 31/25 Q1004 NOSIG
VHHH 020830Z 20006KT 150V260 9999 VCSH FEW016 SCT025 30/25 Q1004 NOSIG
VHHH 020800Z 19006KT 130V230 9999 VCSH FEW014 SCT025 31/25 Q1004 TEMPO 3500 SHRA FEW010CB SCT020
VHHH 020730Z 20008KT 160V230 9999 FEW016 SCT025 31/25 Q1004 TEMPO 3500 SHRA FEW010CB SCT020
VHHH 020700Z 19009KT 150V210 9999 FEW012 SCT025 30/25 Q1005 NOSIG
VHHH 020630Z 20008KT 120V230 9999 VCSH FEW008 SCT023 29/25 Q1005 NOSIG
VHHH 020611Z VRB04KT 8000 -SHRA FEW008 SCT025 28/26 Q1005 RERA TEMPO 4000 -TSRA SHRA FEW012CB SCT020
VHHH 020600Z 19015KT 160V220 1900 1100S R07R/1900U R25L/2000D R07L/2000U R25R/1500D SHRA FEW006 FEW012CB SCT025 27/25 Q1005 RERA TEMPO 4000 -TSRA SHRA FEW012CB SCT020
VHHH 020553Z 19011G21KT 140V250 2900 +SHRA FEW008 FEW012CB SCT028 29/26 Q1005 TEMPO 4000 -TSRA SHRA FEW012CB SCT020
VHHH 020530Z 19008KT 150V230 9999 VCSH FEW020 SCT028 32/25 Q1005 TEMPO 4000 -TSRA SHRA FEW012CB SCT020
VHHH 020500Z 16008KT 100V240 9999 FEW020 SCT028 32/25 Q1005 TEMPO 4000 SHRA FEW012CB SCT020
VHHH 020430Z 20008KT 150V230 9999 FEW020 SCT028 32/24 Q1005 NOSIG
VHHH 020400Z 18006KT 140V230 9999 FEW018 SCT028 31/25 Q1005 NOSIG
VHHH 020330Z 21010KT 8000 3300W -SHRA FEW015 SCT028 29/26 Q1006 NOSIG
VHHH 020316Z 22017KT 9999 FEW015 SCT028 30/25 Q1006 NOSIG
VHHH 020300Z VRB05KT 9999 FEW015 SCT028 30/25 Q1005 NOSIG
VHHH 020230Z 14003KT 090V230 9999 FEW013 SCT028 30/25 Q1005 TEMPO 4000 SHRA FEW012CB SCT020
VHHH 020200Z 16008KT 120V210 9999 3100W -SHRA FEW013 SCT028 30/26 Q1005 TEMPO 4000 SHRA FEW012CB SCT020
VHHH 020130Z 20008KT 9999 FEW018 SCT028 31/26 Q1005 TEMPO 4000 SHRA FEW012CB SCT020
VHHH 020110Z 21011KT 150V240 9999 FEW018 SCT028 30/26 Q1005 TEMPO 4000 SHRA FEW012CB SCT020
VHHH 020100Z 15009KT 120V200 9999 FEW018 SCT028 30/26 Q1005 TEMPO 4000 SHRA FEW012CB SCT020
VHHH 020030Z 16004KT 120V220 9999 FEW018 SCT028 30/25 Q1005 TEMPO 4000 SHRA FEW012CB SCT020
VHHH 020000Z 15007KT 9999 FEW018 SCT028 29/26 Q1005 NOSIG
VHHH 012330Z 15008KT 9999 FEW018 SCT028 29/26 Q1005 NOSIG
VHHH 012300Z 15008KT 090V180 9999 -SHRA FEW018 SCT025 28/26 Q1004 NOSIG
VHHH 012235Z 14008KT 100V160 9999 VCSH FEW018 SCT025 29/26 Q1004 TEMPO 4000 SHRA
VHHH 012230Z 14007KT 9999 VCSH FEW018 SCT025 29/26 Q1004 NOSIG
VHHH 012200Z 15008KT 9999 VCSH FEW014 SCT030 28/26 Q1003 RERA NOSIG
VHHH 012134Z 14006KT 110V170 9999 SHRA FEW014 SCT030 28/26 Q1003 TEMPO 4000 SHRA
VHHH 012115Z 14006KT 120V180 9999 -SHRA FEW012 SCT030 28/26 Q1003 RERA NOSIG
VHHH 012100Z 15007KT 120V230 9999 SHRA FEW014 SCT030 28/26 Q1003 NOSIG
VHHH 012039Z 16010G22KT 130V200 4500 SHRA FEW014 SCT030 28/25 Q1003 RERA NOSIG
VHHH 012036Z 16008KT 140V200 9999 2600W +SHRA FEW014 SCT030 29/25 Q1003 NOSIG
VHHH 012030Z 15008KT 9999 FEW014 SCT030 29/25 Q1003 TEMPO 4000 SHRA FEW010CB SCT020
VHHH 012000Z 14008KT 9999 FEW020 SCT030 29/25 Q1003 TEMPO 4000 SHRA FEW010CB SCT020
VHHH 011930Z 14008KT 9999 FEW020 29/25 Q1003 NOSIG
VHHH 011900Z 11008KT 8000 -SHRA FEW020 BKN025 29/26 Q1003 NOSIG
VHHH 011830Z 15005KT 120V190 9999 -SHRA FEW020 SCT025 30/25 Q1003 TEMPO 4000 SHRA
VHHH 011800Z 13006KT 110V170 9999 FEW016 SCT025 30/25 Q1004 NOSIG
VHHH 011730Z VRB02KT 9999 VCSH FEW020 SCT025 29/26 Q1004 NOSIG
VHHH 011700Z 13007KT 090V200 9999 FEW020 SCT025 29/26 Q1004 NOSIG
VHHH 011630Z 10009KT 9999 FEW025 SCT030 30/25 Q1004 TEMPO 4000 SHRA
VHHH 011600Z 10010KT 9999 SCT025 SCT040 30/26 Q1004 NOSIG
VHHH 011530Z 10010KT 9999 SCT020 SCT040 30/26 Q1005 NOSIG
VHHH 011500Z 10010KT 9999 FEW020 30/25 Q1005 NOSIG
VHHH 011430Z 12010KT 100V160 9999 FEW020 SCT040 30/25 Q1005 NOSIG
VHHH 011400Z 11009KT 9999 FEW020 SCT040 30/25 Q1005 NOSIG
VHHH 011330Z 11009KT 080V160 9999 -SHRA FEW020 BKN030 30/26 Q1005 NOSIG
VHHH 011300Z 11010KT 9999 FEW020 30/25 Q1004 NOSIG
VHHH 011230Z 11010KT 090V160 9999 FEW020 30/26 Q1004 NOSIG
VHHH 011200Z 12011KT 9999 FEW020 30/25 Q1003 NOSIG
VHHH 011130Z 12011KT 9999 FEW020 31/25 Q1003 NOSIG
VHHH 011100Z 11009KT 9999 FEW020 31/25 Q1003 NOSIG
VHHH 011030Z 11008KT 9999 FEW020 31/25 Q1003 NOSIG
VHHH 011000Z 11008KT 080V180 9999 FEW020 31/25 Q1002 NOSIG
VHHH 010930Z 16007KT 130V190 9999 FEW020 31/24 Q1003 NOSIG
VHHH 010900Z 16009KT 110V190 9999 FEW025 SCT040 31/24 Q1002 NOSIG
VHHH 010830Z 17008KT 9999 FEW025 SCT040 31/24 Q1002 NOSIG
VHHH 010800Z 17008KT 130V190 9999 FEW025 SCT040 32/24 Q1003 NOSIG
VHHH 010730Z 13010KT 100V170 9999 FEW022 SCT028 31/25 Q1003 NOSIG
VHHH 010700Z 17007KT 090V210 9999 FEW022 SCT028 32/25 Q1003 NOSIG
VHHH 010630Z 26007KT 190V300 9999 -SHRA FEW022 SCT028 32/25 Q1003 NOSIG
VHHH 010600Z 26010KT 9999 FEW025 SCT030 33/25 Q1003 NOSIG
VHHH 010540Z 25010KT 160V320 9999 FEW025 SCT030 34/24 Q1003 NOSIG
VHHH 010500Z 04007KT 9999 FEW028 SCT035 31/25 Q1003 NOSIG
VHHH 010430Z 03006KT 360V060 9999 SCT025 SCT040 31/25 Q1004 NOSIG
VHHH 010400Z 36004KT 320V040 9999 SCT025 SCT040 30/26 Q1004 NOSIG
VHHH 010330Z VRB03KT 9999 FEW015 FEW020CB SCT030 30/25 Q1005 NOSIG
VHHH 010300Z 08007KT 4500 -SHRA FEW025 SCT030 29/26 Q1005 TEMPO 2500 SHRA FEW010CB SCT025
VHHH 010251Z 02004KT 330V080 4300 1300E R07R/P2000N R25L/P2000N R07L/P2000N R25R/P2000D FEW025 SCT030 29/27 Q1005 TEMPO 2500 SHRA FEW010CB SCT025
VHHH 010248Z 36004KT 310V050 9999 2900E FEW025 SCT030 30/26 Q1005 TEMPO 2500 SHRA FEW010CB SCT025
VHHH 010230Z 32004KT 270V360 9999 FEW025 SCT030 30/25 Q1004 TEMPO 4000 SHRA FEW010CB SCT025
VHHH 010200Z 35003KT 310V040 9999 SCT025 30/25 Q1004 TEMPO 4000 SHRA FEW010CB SCT025
VHHH 010130Z 30004KT 220V360 9999 FEW020 SCT025 30/25 Q1004 NOSIG
VHHH 010100Z 28006KT 9999 FEW015 SCT025 30/25 Q1005 NOSIG
VHHH 010030Z 05006KT 9999 -SHRA FEW015 SCT025 29/25 Q1004 NOSIG
VHHH 010000Z 06006KT 9999 VCSH FEW015 SCT025 29/25 Q1004 TEMPO 4000 SHRA FEW010CB SCT025
VHHH 302330Z 06004KT 9999 VCSH FEW012 SCT025 30/25 Q1004 TEMPO 4000 SHRA FEW010CB SCT025
VHHH 302300Z 06005KT 9999 VCSH FEW014 SCT030 30/26 Q1004 TEMPO 4000 SHRA FEW010CB SCT025
VHHH 302230Z 09003KT 050V130 9999 VCSH FEW012 SCT030 29/25 Q1004 TEMPO 4000 SHRA FEW010CB SCT025
VHHH 302200Z 10003KT 010V160 9999 FEW014 29/25 Q1004 TEMPO 4000 SHRA FEW010CB SCT025
VHHH 302130Z 13005KT 9999 FEW014 29/25 Q1003 NOSIG
VHHH 302100Z VRB03KT 080V150 9999 FEW016 29/25 Q1003 NOSIG
VHHH 302030Z 11005KT 9999 FEW016 29/25 Q1003 NOSIG
VHHH 302000Z 13005KT 100V170 9999 FEW016 29/25 Q1003 NOSIG